Time;durP1;ratioP1;P1;durP2;ratioP2;P2;SDS_P1;SDS_P2;PMS_P1;PMS_P2;Temp;Humidity;BMP_temperature;BMP_pressure;BME280_temperature;BME280_humidity;BME280_pressure;Samples;Min_cycle;Max_cycle;Signal;HPM_P1;HPM_P2
2023/05/23 00:01:37;;;;;;;19.83;12.93;;;;;;;12.99;100.00;93828.72;5061669;28;20112;-57
2023/05/23 00:04:05;;;;;;;20.38;12.85;;;;;;;13.03;100.00;93828.63;5054237;28;20291;-59
2023/05/23 00:06:33;;;;;;;20.33;12.70;;;;;;;13.06;100.00;93820.28;5051737;28;20452;-57
2023/05/23 00:09:00;;;;;;;23.13;14.30;;;;;;;13.06;100.00;93825.00;5051657;28;20039;-59
2023/05/23 00:11:27;;;;;;;20.60;13.32;;;;;;;13.08;100.00;93822.56;5050659;28;21517;-58
2023/05/23 00:13:56;;;;;;;21.45;13.80;;;;;;;13.06;100.00;93817.53;5054426;28;20033;-57
2023/05/23 00:16:23;;;;;;;20.85;13.68;;;;;;;13.06;100.00;93822.22;5050983;28;20040;-57
2023/05/23 00:18:50;;;;;;;20.67;13.50;;;;;;;13.06;100.00;93825.00;5051385;28;20047;-57
2023/05/23 00:21:17;;;;;;;21.15;13.63;;;;;;;13.05;100.00;93828.97;5050732;28;20037;-59
2023/05/23 00:23:44;;;;;;;20.92;13.90;;;;;;;13.04;100.00;93821.88;5051422;28;20044;-58
2023/05/23 00:26:10;;;;;;;21.55;13.90;;;;;;;13.04;100.00;93822.69;5020121;28;20071;-57
2023/05/23 00:28:37;;;;;;;27.77;17.20;;;;;;;13.00;100.00;93816.50;5060800;28;20053;-59
2023/05/23 00:31:04;;;;;;;26.20;16.30;;;;;;;13.00;100.00;93827.53;5049505;28;20375;-57
2023/05/23 00:33:33;;;;;;;26.00;15.35;;;;;;;12.99;100.00;93823.19;5033376;28;20401;-57
2023/05/23 00:35:59;;;;;;;23.67;14.82;;;;;;;12.99;100.00;93823.97;5037225;28;20047;-57
2023/05/23 00:38:27;;;;;;;24.42;15.80;;;;;;;13.03;100.00;93823.13;5070628;28;20368;-59
2023/05/23 00:40:54;;;;;;;23.45;15.13;;;;;;;13.01;100.00;93833.78;5055074;28;20072;-58
2023/05/23 00:43:21;;;;;;;22.37;14.60;;;;;;;12.89;100.00;93827.78;5050322;28;20029;-57
2023/05/23 00:45:48;;;;;;;22.38;14.80;;;;;;;12.85;100.00;93835.34;5050881;28;20041;-57
2023/05/23 00:48:15;;;;;;;21.70;15.20;;;;;;;12.86;100.00;93825.91;5049199;28;20170;-57
2023/05/23 00:50:42;;;;;;;20.25;14.32;;;;;;;12.88;100.00;93825.47;5064606;28;20040;-57
2023/05/23 00:53:09;;;;;;;23.02;14.40;;;;;;;12.73;100.00;93830.56;5059565;28;20036;-58
2023/05/23 00:55:36;;;;;;;21.73;14.20;;;;;;;12.83;100.00;93837.00;5067814;28;20320;-59
2023/05/23 00:58:03;;;;;;;65.20;39.25;;;;;;;12.85;100.00;93834.59;5058229;28;20037;-58
2023/05/23 01:00:32;;;;;;;37.35;22.02;;;;;;;12.84;100.00;93836.56;5055346;28;20045;-57
2023/05/23 01:03:00;;;;;;;25.88;15.38;;;;;;;12.77;100.00;93834.75;5050505;28;20048;-57
2023/05/23 01:05:26;;;;;;;23.45;14.90;;;;;;;12.76;100.00;93840.72;5062967;28;20048;-57
2023/05/23 01:07:53;;;;;;;23.00;14.10;;;;;;;12.74;100.00;93843.13;5050636;28;20037;-57
2023/05/23 01:10:24;;;;;;;21.48;13.80;;;;;;;12.51;100.00;93838.56;5050007;28;20047;-57
2023/05/23 01:12:57;;;;;;;21.10;13.52;;;;;;;12.44;100.00;93845.00;5050568;28;20059;-57
2023/05/23 01:15:52;;;;;;;22.23;13.48;;;;;;;12.37;100.00;93845.97;5055816;28;20037;-57
2023/05/23 01:18:42;;;;;;;21.98;14.20;;;;;;;12.38;100.00;93842.00;5061261;28;20036;-57
2023/05/23 01:21:21;;;;;;;22.33;13.83;;;;;;;12.35;100.00;93848.38;5056054;28;20098;-57
2023/05/23 01:24:13;;;;;;;21.35;13.35;;;;;;;12.37;100.00;93839.66;5050592;28;20051;-57
2023/05/23 01:27:00;;;;;;;20.98;14.27;;;;;;;12.39;100.00;93843.56;5049234;28;21014;-57
2023/05/23 01:29:27;;;;;;;76.65;44.42;;;;;;;12.41;100.00;93837.59;5050530;28;20837;-58
2023/05/23 01:31:56;;;;;;;39.47;23.48;;;;;;;12.42;100.00;93833.66;5043944;28;20041;-57
2023/05/23 01:34:23;;;;;;;23.37;15.07;;;;;;;12.44;100.00;93836.75;5037733;28;20523;-59
2023/05/23 01:36:54;;;;;;;23.55;15.57;;;;;;;12.44;100.00;93836.00;5050223;28;20385;-57
2023/05/23 01:39:22;;;;;;;22.63;13.70;;;;;;;12.43;100.00;93835.19;5043361;28;20505;-57
2023/05/23 01:41:50;;;;;;;20.83;13.52;;;;;;;12.43;100.00;93829.69;5060544;28;20040;-57
2023/05/23 01:44:17;;;;;;;21.02;13.50;;;;;;;12.45;100.00;93837.53;5035368;28;20041;-57
2023/05/23 01:46:47;;;;;;;23.73;14.50;;;;;;;12.43;100.00;93835.19;5046134;28;20048;-57
2023/05/23 01:49:16;;;;;;;24.50;14.75;;;;;;;12.39;100.00;93835.31;5051057;28;20037;-56
2023/05/23 01:51:44;;;;;;;22.65;14.50;;;;;;;12.40;100.00;93836.06;5035443;28;20051;-58
2023/05/23 01:54:15;;;;;;;40.75;24.20;;;;;;;12.33;100.00;93839.75;5062327;28;20043;-57
2023/05/23 01:56:43;;;;;;;35.35;20.65;;;;;;;12.36;100.00;93840.88;5026179;28;20053;-57
2023/05/23 01:59:10;;;;;;;27.80;18.03;;;;;;;12.37;100.00;93840.47;5049460;28;20666;-58
2023/05/23 02:01:37;;;;;;;24.33;15.88;;;;;;;12.37;100.00;93836.91;5041460;28;20037;-59
2023/05/23 02:04:04;;;;;;;23.58;15.00;;;;;;;12.36;100.00;93830.63;5055539;28;20052;-57
2023/05/23 02:06:31;;;;;;;21.75;13.90;;;;;;;12.27;100.00;93829.69;5034214;28;20041;-57
2023/05/23 02:08:57;;;;;;;21.65;14.20;;;;;;;12.24;100.00;93828.56;5040199;28;20051;-57
2023/05/23 02:11:25;;;;;;;22.20;14.17;;;;;;;12.22;100.00;93833.72;5028472;28;20102;-57
2023/05/23 02:13:52;;;;;;;21.52;13.80;;;;;;;12.20;100.00;93833.38;5029716;28;20080;-58
2023/05/23 02:16:19;;;;;;;22.63;13.73;;;;;;;12.23;100.00;93837.25;5037886;28;20055;-58
2023/05/23 02:18:46;;;;;;;28.63;16.55;;;;;;;12.05;100.00;93846.66;5026795;28;20192;-62
2023/05/23 02:21:12;;;;;;;26.85;16.98;;;;;;;11.90;100.00;93840.72;5013218;28;20037;-57
2023/05/23 02:23:41;;;;;;;24.57;15.43;;;;;;;12.08;100.00;93834.81;5049604;28;20029;-57
2023/05/23 02:26:08;;;;;;;23.40;14.70;;;;;;;12.17;100.00;93836.97;5045789;28;20036;-58
2023/05/23 02:28:35;;;;;;;26.23;16.10;;;;;;;12.24;100.00;93836.06;5049606;28;20044;-60
2023/05/23 02:31:02;;;;;;;28.15;16.83;;;;;;;12.33;100.00;93836.22;5050507;28;20116;-57
2023/05/23 02:33:28;;;;;;;30.15;17.35;;;;;;;12.38;100.00;93844.75;5030511;28;20345;-60
2023/05/23 02:35:55;;;;;;;27.83;17.93;;;;;;;12.42;100.00;93844.66;5046264;28;20072;-58
2023/05/23 02:38:22;;;;;;;29.30;17.65;;;;;;;12.44;100.00;93845.00;5051336;28;20470;-57
2023/05/23 02:40:50;;;;;;;30.27;18.20;;;;;;;12.45;100.00;93848.53;5043978;28;20051;-58
2023/05/23 02:43:17;;;;;;;29.17;18.23;;;;;;;12.47;100.00;93857.13;5027306;28;20053;-59
2023/05/23 02:45:44;;;;;;;28.05;17.73;;;;;;;12.47;100.00;93851.63;5035911;28;20303;-58
2023/05/23 02:48:11;;;;;;;26.00;17.13;;;;;;;12.42;100.00;93849.41;5041257;28;20037;-59
2023/05/23 02:50:38;;;;;;;46.03;28.13;;;;;;;12.41;100.00;93847.84;5044113;28;20456;-58
2023/05/23 02:53:04;;;;;;;31.15;18.15;;;;;;;12.35;100.00;93845.63;5043801;28;20492;-56
2023/05/23 02:55:31;;;;;;;28.73;17.23;;;;;;;12.27;100.00;93848.94;5046224;28;20033;-58
2023/05/23 02:57:58;;;;;;;29.30;17.80;;;;;;;12.28;100.00;93854.03;5040860;28;20307;-60
2023/05/23 03:00:25;;;;;;;28.07;18.07;;;;;;;12.30;100.00;93865.38;5039342;28;20041;-58
2023/05/23 03:02:51;;;;;;;30.60;18.17;;;;;;;12.38;100.00;93858.50;5036009;28;20046;-57
2023/05/23 03:05:18;;;;;;;29.80;18.33;;;;;;;12.45;100.00;93862.28;5036649;28;20512;-59
2023/05/23 03:07:45;;;;;;;29.48;17.90;;;;;;;12.50;100.00;93865.31;5032819;28;20131;-57
2023/05/23 03:10:11;;;;;;;29.42;18.42;;;;;;;12.54;100.00;93865.25;5036290;28;20158;-58
2023/05/23 03:12:38;;;;;;;30.53;18.90;;;;;;;12.59;100.00;93848.97;5030275;28;20041;-61
2023/05/23 03:15:05;;;;;;;31.00;18.70;;;;;;;12.63;100.00;93865.41;5036543;28;20047;-58
2023/05/23 03:17:32;;;;;;;31.02;19.05;;;;;;;12.65;100.00;93860.22;5040600;28;20093;-59
2023/05/23 03:19:59;;;;;;;32.00;18.75;;;;;;;12.60;100.00;93866.28;5032584;28;20046;-57
2023/05/23 03:22:25;;;;;;;29.38;19.02;;;;;;;12.60;100.00;93855.25;5039045;28;20037;-59
2023/05/23 03:24:52;;;;;;;32.23;18.87;;;;;;;12.61;100.00;93856.78;5031566;28;20038;-57
2023/05/23 03:27:19;;;;;;;30.55;19.40;;;;;;;12.59;100.00;93854.47;5041765;28;20048;-59
2023/05/23 03:29:47;;;;;;;32.92;19.48;;;;;;;12.54;100.00;93856.97;5030927;28;20045;-58
2023/05/23 03:32:13;;;;;;;29.45;18.38;;;;;;;12.58;100.00;93857.66;5045111;28;20037;-57
2023/05/23 03:34:40;;;;;;;31.17;19.20;;;;;;;12.63;100.00;93862.66;5033576;28;20094;-57
2023/05/23 03:37:07;;;;;;;31.73;19.87;;;;;;;12.61;100.00;93861.53;5028947;28;20049;-58
2023/05/23 03:39:33;;;;;;;33.05;20.38;;;;;;;12.55;100.00;93862.03;5041533;28;20041;-57
2023/05/23 03:42:02;;;;;;;31.80;19.35;;;;;;;12.62;100.00;93866.63;5040133;28;20049;-57
2023/05/23 03:44:29;;;;;;;30.98;19.08;;;;;;;12.64;100.00;93871.69;5033179;28;20676;-59
2023/05/23 03:46:55;;;;;;;33.60;19.45;;;;;;;12.68;100.00;93870.41;5045290;28;20392;-58
2023/05/23 03:49:22;;;;;;;32.57;20.73;;;;;;;12.73;100.00;93869.88;5037009;28;20053;-58
2023/05/23 03:51:49;;;;;;;33.53;18.75;;;;;;;12.89;100.00;93871.06;5037163;28;20385;-57
2023/05/23 03:54:16;;;;;;;33.03;19.77;;;;;;;12.89;100.00;93866.34;5040236;28;20037;-59
2023/05/23 03:56:43;;;;;;;32.45;20.55;;;;;;;12.90;100.00;93869.88;5034409;28;20037;-59
2023/05/23 03:59:10;;;;;;;31.90;20.00;;;;;;;12.93;100.00;93871.75;5050718;28;20043;-57
2023/05/23 04:01:37;;;;;;;34.73;19.83;;;;;;;13.03;100.00;93867.97;5037075;28;20055;-58
2023/05/23 04:04:04;;;;;;;31.23;19.35;;;;;;;13.14;100.00;93870.47;5034823;28;20048;-57
2023/05/23 04:06:32;;;;;;;33.92;19.80;;;;;;;13.20;100.00;93860.47;5039680;28;20041;-57
2023/05/23 04:08:59;;;;;;;31.15;18.88;;;;;;;13.19;100.00;93864.41;5048398;28;20033;-58
2023/05/23 04:11:25;;;;;;;31.45;19.27;;;;;;;13.20;100.00;93865.97;5045988;28;20037;-57
2023/05/23 04:13:53;;;;;;;32.57;19.17;;;;;;;13.33;100.00;93872.31;5036706;28;20038;-59
2023/05/23 04:16:21;;;;;;;30.92;19.50;;;;;;;13.38;100.00;93869.06;5033499;28;20520;-59
2023/05/23 04:18:48;;;;;;;32.55;19.33;;;;;;;13.43;100.00;93873.25;5046024;28;20041;-59
2023/05/23 04:21:15;;;;;;;30.10;18.55;;;;;;;13.45;100.00;93865.31;5041206;28;20079;-59
2023/05/23 04:23:42;;;;;;;30.05;19.35;;;;;;;13.46;100.00;93866.88;5038021;28;20052;-57
2023/05/23 04:26:09;;;;;;;31.80;19.03;;;;;;;13.55;100.00;93866.25;5040887;28;20059;-57
2023/05/23 04:28:36;;;;;;;30.60;19.13;;;;;;;13.65;100.00;93872.69;5057638;28;20052;-59
2023/05/23 04:31:03;;;;;;;32.72;19.42;;;;;;;13.65;100.00;93880.94;5030661;28;20199;-57
2023/05/23 04:33:32;;;;;;;30.65;19.23;;;;;;;13.62;100.00;93877.06;5031540;28;20060;-57
2023/05/23 04:36:00;;;;;;;32.80;19.35;;;;;;;13.48;100.00;93880.22;5031131;28;20053;-57
2023/05/23 04:38:27;;;;;;;33.80;19.50;;;;;;;13.44;100.00;93872.06;5042654;28;20141;-60
2023/05/23 04:40:53;;;;;;;33.10;20.83;;;;;;;13.45;100.00;93884.63;5042283;28;20063;-58
2023/05/23 04:43:20;;;;;;;32.90;20.35;;;;;;;13.55;100.00;93883.56;5050196;28;20045;-57
2023/05/23 04:45:50;;;;;;;30.85;18.92;;;;;;;13.59;100.00;93878.72;5049444;28;20082;-57
2023/05/23 04:48:20;;;;;;;31.92;19.02;;;;;;;13.80;100.00;93884.84;5063775;28;20045;-55
2023/05/23 04:50:49;;;;;;;29.10;18.73;;;;;;;13.81;100.00;93880.13;5036624;28;20045;-56
2023/05/23 04:53:16;;;;;;;31.77;18.35;;;;;;;13.98;100.00;93879.59;5057172;28;20404;-56
2023/05/23 04:55:43;;;;;;;30.98;19.35;;;;;;;14.15;100.00;93876.75;5055406;28;20045;-57
2023/05/23 04:58:11;;;;;;;30.77;18.75;;;;;;;14.25;100.00;93885.94;5049954;28;20041;-57
2023/05/23 05:00:38;;;;;;;30.33;18.05;;;;;;;14.40;100.00;93889.81;5050267;28;20086;-61
2023/05/23 05:03:08;;;;;;;28.40;18.40;;;;;;;14.52;100.00;93882.75;5049599;28;20037;-59
2023/05/23 05:05:36;;;;;;;27.23;17.75;;;;;;;14.42;100.00;93886.59;5033133;28;20032;-57
2023/05/23 05:08:02;;;;;;;27.83;18.75;;;;;;;14.42;100.00;93883.84;5060493;28;20130;-58
2023/05/23 05:10:29;;;;;;;28.33;18.40;;;;;;;14.67;100.00;93881.13;5036122;28;20063;-57
2023/05/23 05:12:56;;;;;;;29.73;18.02;;;;;;;14.77;100.00;93880.00;5049594;28;20497;-60
2023/05/23 05:15:22;;;;;;;29.63;19.23;;;;;;;14.76;100.00;93886.72;5050894;28;20060;-57
2023/05/23 05:17:49;;;;;;;27.98;18.40;;;;;;;14.70;100.00;93890.50;5049955;28;20037;-58
2023/05/23 05:20:16;;;;;;;30.25;18.63;;;;;;;14.79;100.00;93882.31;5050164;28;20056;-57
2023/05/23 05:22:44;;;;;;;27.23;18.65;;;;;;;15.18;100.00;93885.78;5063291;28;20056;-59
2023/05/23 05:25:11;;;;;;;27.38;18.13;;;;;;;15.46;100.00;93883.28;5043412;28;20111;-61
2023/05/23 05:27:38;;;;;;;29.87;19.27;;;;;;;15.15;100.00;93887.47;5049143;28;20051;-60
2023/05/23 05:30:09;;;;;;;29.55;19.20;;;;;;;15.46;100.00;93894.34;5057551;28;20465;-60
2023/05/23 05:32:35;;;;;;;27.52;18.10;;;;;;;16.02;100.00;93885.25;5058177;28;20071;-60
2023/05/23 05:35:02;;;;;;;28.65;18.70;;;;;;;15.93;100.00;93880.41;5057467;28;20057;-59
2023/05/23 05:37:29;;;;;;;28.55;18.23;;;;;;;16.18;100.00;93879.50;5043668;28;20047;-60
2023/05/23 05:39:57;;;;;;;28.83;18.23;;;;;;;16.17;100.00;93879.97;5044752;28;20052;-58
2023/05/23 05:42:24;;;;;;;29.50;19.88;;;;;;;16.06;100.00;93888.69;5058914;28;20473;-55
2023/05/23 05:44:51;;;;;;;29.55;20.02;;;;;;;15.44;100.00;93891.25;5052377;28;20036;-57
2023/05/23 05:47:18;;;;;;;29.73;19.27;;;;;;;15.20;100.00;93901.94;5050537;28;20070;-59
2023/05/23 05:49:44;;;;;;;30.63;19.58;;;;;;;15.41;100.00;93903.97;5043870;28;20042;-60
2023/05/23 05:52:11;;;;;;;28.97;19.23;;;;;;;15.41;100.00;93898.44;5040340;28;20052;-57
2023/05/23 05:54:38;;;;;;;27.65;18.63;;;;;;;15.34;100.00;93901.44;5047907;28;20063;-56
2023/05/23 05:57:05;;;;;;;28.80;18.92;;;;;;;15.84;100.00;93902.50;5052600;28;20409;-57
2023/05/23 05:59:31;;;;;;;27.23;18.10;;;;;;;16.08;100.00;93893.75;5039106;28;20048;-60
2023/05/23 06:01:58;;;;;;;29.55;18.10;;;;;;;16.59;100.00;93896.19;5035734;28;20047;-57
2023/05/23 06:04:25;;;;;;;25.40;17.60;;;;;;;16.54;100.00;93899.53;5051125;28;20050;-57
2023/05/23 06:06:52;;;;;;;24.83;17.05;;;;;;;16.55;100.00;93907.38;5041606;28;20385;-57
2023/05/23 06:09:18;;;;;;;25.95;17.30;;;;;;;17.64;100.00;93896.28;5028383;28;20413;-57
2023/05/23 06:11:45;;;;;;;27.17;18.73;;;;;;;17.64;100.00;93896.28;5029507;28;20390;-57
2023/05/23 06:14:12;;;;;;;26.67;18.52;;;;;;;17.02;100.00;93902.81;5028901;28;20044;-60
2023/05/23 06:16:39;;;;;;;27.07;17.63;;;;;;;17.00;100.00;93904.50;5042497;28;20040;-60
2023/05/23 06:19:07;;;;;;;23.95;17.33;;;;;;;16.77;100.00;93899.03;5029052;28;20059;-60
2023/05/23 06:21:35;;;;;;;26.95;18.15;;;;;;;16.40;100.00;93909.19;5043110;28;20094;-57
2023/05/23 06:24:01;;;;;;;32.55;20.50;;;;;;;15.51;100.00;93913.13;5041129;28;20053;-57
2023/05/23 06:26:28;;;;;;;33.95;21.55;;;;;;;15.56;100.00;93918.09;5028991;28;20588;-59
2023/05/23 06:28:55;;;;;;;31.53;20.07;;;;;;;15.94;100.00;93914.44;5040972;28;20045;-58
2023/05/23 06:31:22;;;;;;;35.85;21.17;;;;;;;16.08;100.00;93915.91;5041362;28;20044;-58
2023/05/23 06:33:48;;;;;;;32.72;20.08;;;;;;;16.03;100.00;93919.25;5029264;28;20057;-61
2023/05/23 06:36:15;;;;;;;34.90;21.63;;;;;;;15.87;100.00;93920.97;5043440;28;20041;-57
2023/05/23 06:38:42;;;;;;;37.80;22.50;;;;;;;16.21;100.00;93910.28;5040131;28;20041;-57
2023/05/23 06:41:08;;;;;;;37.90;21.33;;;;;;;16.13;100.00;93915.31;5041534;28;20045;-61
2023/05/23 06:43:35;;;;;;;40.75;24.52;;;;;;;15.87;100.00;93922.97;5023811;28;20044;-61
2023/05/23 06:46:02;;;;;;;39.22;24.05;;;;;;;15.80;100.00;93917.72;5053460;28;20044;-55
2023/05/23 06:48:29;;;;;;;41.63;23.88;;;;;;;16.09;100.00;93920.97;5062006;28;20388;-59
2023/05/23 06:50:56;;;;;;;37.13;23.10;;;;;;;16.67;100.00;93916.06;5040878;28;20124;-57
2023/05/23 06:53:22;;;;;;;40.03;23.63;;;;;;;16.84;100.00;93913.84;5045474;28;20504;-58
2023/05/23 06:55:49;;;;;;;41.53;23.00;;;;;;;16.83;100.00;93920.63;5053792;28;20037;-61
2023/05/23 06:58:16;;;;;;;43.72;24.73;;;;;;;16.56;100.00;93910.94;5010799;28;20052;-58
2023/05/23 07:00:43;;;;;;;46.45;26.73;;;;;;;15.95;100.00;93922.25;5044869;28;20037;-57
2023/05/23 07:03:10;;;;;;;39.05;24.15;;;;;;;16.64;100.00;93926.06;5055915;28;20052;-57
2023/05/23 07:05:36;;;;;;;42.93;26.53;;;;;;;16.64;100.00;93922.50;5035029;28;20497;-58
2023/05/23 07:08:09;;;;;;;43.67;25.30;;;;;;;16.24;100.00;93929.53;5044751;28;20055;-57
2023/05/23 07:10:37;;;;;;;39.25;23.48;;;;;;;16.59;100.00;93926.66;5027606;28;20432;-61
2023/05/23 07:13:04;;;;;;;46.13;24.27;;;;;;;16.71;100.00;93927.78;5040673;28;20053;-60
2023/05/23 07:15:31;;;;;;;42.90;23.63;;;;;;;16.51;100.00;93931.69;5044994;28;20061;-57
2023/05/23 07:17:58;;;;;;;36.80;21.80;;;;;;;16.42;100.00;93939.97;5022623;28;20048;-59
2023/05/23 07:20:25;;;;;;;39.08;21.67;;;;;;;16.28;100.00;93940.47;5040191;28;20076;-60
2023/05/23 07:22:52;;;;;;;38.88;22.30;;;;;;;16.47;100.00;93931.06;5022339;28;20044;-58
2023/05/23 07:25:18;;;;;;;38.78;21.42;;;;;;;16.63;100.00;93927.28;5044100;28;20385;-58
2023/05/23 07:27:45;;;;;;;39.83;23.20;;;;;;;16.79;100.00;93929.06;5048796;28;20385;-58
2023/05/23 07:30:13;;;;;;;38.27;22.23;;;;;;;17.01;100.00;93923.47;5047791;28;20041;-58
2023/05/23 07:32:39;;;;;;;38.92;22.88;;;;;;;17.29;100.00;93920.78;5047848;28;20063;-58
2023/05/23 07:35:07;;;;;;;37.67;23.30;;;;;;;17.72;100.00;93918.97;5046881;28;20052;-61
2023/05/23 07:37:34;;;;;;;40.08;22.55;;;;;;;17.98;100.00;93924.25;5047873;28;20474;-61
2023/05/23 07:40:00;;;;;;;38.63;22.95;;;;;;;18.12;100.00;93929.94;5047722;28;20102;-61
2023/05/23 07:42:27;;;;;;;38.87;23.37;;;;;;;18.38;100.00;93921.25;5050405;28;20405;-57
2023/05/23 07:44:54;;;;;;;39.25;23.77;;;;;;;19.18;100.00;93923.97;5051695;28;20119;-58
2023/05/23 07:47:20;;;;;;;36.72;23.35;;;;;;;19.46;100.00;93924.56;5064746;28;20037;-61
2023/05/23 07:49:47;;;;;;;41.88;24.15;;;;;;;19.29;100.00;93915.84;5083493;28;20032;-59
2023/05/23 07:52:14;;;;;;;35.80;22.90;;;;;;;21.10;100.00;93914.41;5081340;28;20058;-58
2023/05/23 07:54:41;;;;;;;32.80;21.87;;;;;;;22.73;100.00;93915.66;5080073;28;20075;-61
2023/05/23 07:57:08;;;;;;;32.25;20.85;;;;;;;25.25;84.93;93908.06;5079837;28;20055;-58
2023/05/23 07:59:35;;;;;;;31.63;21.85;;;;;;;25.05;78.97;93909.84;5060133;28;20032;-58
2023/05/23 08:02:02;;;;;;;32.75;22.58;;;;;;;24.76;79.87;93913.91;5045873;28;20069;-59
2023/05/23 08:04:29;;;;;;;28.65;21.42;;;;;;;26.02;74.18;93899.97;5031060;28;20765;-62
2023/05/23 08:06:56;;;;;;;28.47;21.10;;;;;;;25.34;73.15;93899.38;5030464;28;20041;-59
2023/05/23 08:09:31;;;;;;;28.45;22.20;;;;;;;24.30;76.27;93901.81;5030768;28;20629;-58
2023/05/23 08:11:57;;;;;;;25.48;20.15;;;;;;;26.18;69.87;93897.59;5053243;28;20037;-59
2023/05/23 08:14:26;;;;;;;29.05;22.95;;;;;;;25.30;70.73;93901.69;5049733;28;20041;-59
2023/05/23 08:17:12;;;;;;;29.00;22.83;;;;;;;23.67;76.36;93905.63;5041977;28;20048;-59
2023/05/23 08:19:40;;;;;;;25.60;20.10;;;;;;;26.65;66.58;93897.63;5054924;28;20111;-60
2023/05/23 08:22:07;;;;;;;23.65;18.42;;;;;;;28.81;57.92;93897.66;5039896;28;20117;-60
2023/05/23 08:24:34;;;;;;;23.60;19.15;;;;;;;27.79;54.60;93904.56;5060394;28;20037;-59
2023/05/23 08:27:01;;;;;;;23.17;18.55;;;;;;;27.89;57.11;93902.94;5031557;28;20045;-57
2023/05/23 08:29:27;;;;;;;24.65;20.17;;;;;;;27.86;55.19;93903.97;5030304;28;20393;-59
2023/05/23 08:31:54;;;;;;;23.03;18.70;;;;;;;26.97;60.52;93908.41;5050811;28;20045;-59
2023/05/23 08:34:21;;;;;;;24.80;18.75;;;;;;;26.73;64.38;93906.28;5057265;28;20036;-59
2023/05/23 08:36:48;;;;;;;25.42;20.02;;;;;;;25.61;68.37;93909.00;5049731;28;20478;-59
2023/05/23 08:39:14;;;;;;;24.73;19.92;;;;;;;25.36;64.72;93910.09;5048952;28;20048;-62
2023/05/23 08:41:41;;;;;;;24.98;19.55;;;;;;;25.67;63.31;93918.19;5049298;28;20047;-59
2023/05/23 08:44:08;;;;;;;26.00;19.90;;;;;;;25.27;63.52;93913.91;5049822;28;20043;-59
2023/05/23 08:46:43;;;;;;;24.30;18.83;;;;;;;26.03;65.35;93914.78;5032603;28;20045;-62
2023/05/23 08:49:13;;;;;;;21.90;17.50;;;;;;;27.26;60.08;93913.28;5039775;28;20442;-59
2023/05/23 08:51:42;;;;;;;23.52;19.40;;;;;;;27.77;58.30;93918.44;5050234;28;20185;-60
2023/05/23 08:54:12;;;;;;;26.42;19.90;;;;;;;26.05;62.84;93915.03;5045920;28;20110;-59
2023/05/23 08:56:39;;;;;;;24.03;19.00;;;;;;;26.04;64.28;93919.91;5048369;28;20533;-60
2023/05/23 08:59:08;;;;;;;25.10;19.70;;;;;;;28.03;57.29;93923.56;5057146;28;20032;-62
2023/05/23 09:01:38;;;;;;;28.60;20.10;;;;;;;26.05;61.48;93923.47;5045157;28;20056;-59
2023/05/23 09:04:06;;;;;;;22.13;18.30;;;;;;;26.15;61.11;93921.13;5041084;28;20059;-59
2023/05/23 09:06:34;;;;;;;24.95;18.85;;;;;;;25.88;60.16;93929.91;5030748;28;20049;-60
2023/05/23 09:09:00;;;;;;;21.37;17.00;;;;;;;26.95;56.89;93930.69;5038261;28;20063;-62
2023/05/23 09:11:27;;;;;;;20.98;17.42;;;;;;;25.33;59.77;93939.19;5049754;28;20719;-60
2023/05/23 09:13:54;;;;;;;23.02;18.38;;;;;;;25.62;61.19;93935.84;5052337;28;20075;-59
2023/05/23 09:16:22;;;;;;;21.92;17.30;;;;;;;26.19;56.21;93933.63;5047646;28;20090;-59
2023/05/23 09:18:48;;;;;;;17.98;14.07;;;;;;;28.67;52.89;93933.53;5057313;28;20041;-59
2023/05/23 09:21:15;;;;;;;19.00;15.20;;;;;;;28.94;47.94;93934.44;5032479;28;20053;-58
2023/05/23 09:23:42;;;;;;;20.20;17.80;;;;;;;27.22;54.12;93937.38;5052852;28;20044;-58
2023/05/23 09:26:10;;;;;;;20.15;16.63;;;;;;;28.27;53.53;93941.72;5049845;28;20124;-57
2023/05/23 09:28:39;;;;;;;20.23;16.40;;;;;;;28.23;51.75;93941.28;5044851;28;20409;-57
2023/05/23 09:31:07;;;;;;;21.52;17.02;;;;;;;26.49;53.64;93941.44;5048939;28;20041;-58
2023/05/23 09:33:48;;;;;;;21.50;17.17;;;;;;;25.14;60.55;93947.38;5062132;28;20043;-59
2023/05/23 09:36:16;;;;;;;21.10;17.20;;;;;;;24.66;62.96;93943.50;5056258;28;20047;-58
2023/05/23 09:38:45;;;;;;;23.63;18.58;;;;;;;23.45;71.19;93958.72;5055094;28;20041;-59
2023/05/23 09:41:12;;;;;;;26.23;19.55;;;;;;;22.50;78.58;93945.44;5040589;28;20037;-59
2023/05/23 09:44:04;;;;;;;27.50;21.00;;;;;;;21.93;86.48;93942.00;5049106;28;20060;-62
2023/05/23 09:46:35;;;;;;;25.03;19.00;;;;;;;21.49;86.71;93939.34;5069483;28;20066;-58
2023/05/23 09:49:14;;;;;;;23.83;18.70;;;;;;;23.11;78.64;93947.28;5053080;28;20037;-59
2023/05/23 09:51:41;;;;;;;23.83;19.70;;;;;;;21.71;83.62;93939.69;5055497;28;20131;-61
2023/05/23 09:54:08;;;;;;;26.65;20.45;;;;;;;21.49;89.73;93942.16;5040694;28;20068;-59
2023/05/23 09:56:40;;;;;;;26.15;19.20;;;;;;;23.20;79.47;93938.72;5049775;28;20051;-61
2023/05/23 09:59:10;;;;;;;27.37;19.97;;;;;;;21.31;87.35;93932.75;5045146;28;20393;-62
2023/05/23 10:01:37;;;;;;;24.27;19.08;;;;;;;22.20;83.37;93931.63;5056365;28;20366;-59
2023/05/23 10:04:05;;;;;;;25.17;18.67;;;;;;;22.19;83.32;93929.31;5035371;28;20041;-61
2023/05/23 10:06:48;;;;;;;23.15;18.77;;;;;;;22.34;78.78;93930.78;5045252;28;20068;-60
2023/05/23 10:09:17;;;;;;;22.25;17.30;;;;;;;24.05;72.00;93920.34;5040898;28;20037;-60
2023/05/23 10:12:06;;;;;;;23.07;18.50;;;;;;;23.49;73.36;93925.66;5052739;28;20384;-59
2023/05/23 10:14:37;;;;;;;23.70;19.27;;;;;;;24.13;70.51;93915.03;5056612;28;21754;-60
2023/05/23 10:17:13;;;;;;;21.88;17.48;;;;;;;26.14;61.51;93914.75;5046832;28;20045;-62
2023/05/23 10:19:51;;;;;;;22.83;17.77;;;;;;;25.72;62.24;93911.03;5044121;28;20083;-59
2023/05/23 10:22:19;;;;;;;19.95;16.70;;;;;;;25.16;61.39;93909.06;5018948;28;20051;-62
2023/05/23 10:24:47;;;;;;;19.57;16.27;;;;;;;24.54;61.93;93911.06;5025218;28;20066;-64
2023/05/23 10:27:14;;;;;;;19.67;16.67;;;;;;;24.03;62.83;93920.09;5030371;28;20097;-64
2023/05/23 10:29:42;;;;;;;19.85;16.05;;;;;;;23.92;67.25;93908.81;5039462;28;20041;-59
2023/05/23 10:32:10;;;;;;;17.52;15.20;;;;;;;26.30;56.42;93901.91;5042120;28;20036;-60
2023/05/23 10:34:47;;;;;;;19.10;16.35;;;;;;;25.28;59.58;93907.03;5041245;28;20051;-58
2023/05/23 10:38:12;;;;;;;21.10;16.27;;;;;;;25.12;59.90;93900.88;5039807;28;20048;-62
2023/05/23 10:41:05;;;;;;;21.65;17.92;;;;;;;24.55;63.43;93898.56;4992360;28;20680;-60
2023/05/23 10:43:51;;;;;;;17.75;15.00;;;;;;;26.13;57.39;93901.97;5026570;28;20045;-59
2023/05/23 10:46:21;;;;;;;17.65;14.13;;;;;;;27.04;53.59;93893.72;5048521;28;20061;-59
2023/05/23 10:48:56;;;;;;;17.30;14.30;;;;;;;25.55;56.63;93897.00;5049112;28;20462;-59
2023/05/23 10:51:23;;;;;;;18.77;15.17;;;;;;;24.63;62.08;93893.97;5050212;28;20049;-58
2023/05/23 10:53:53;;;;;;;20.42;16.30;;;;;;;24.74;63.29;93894.00;5048266;28;20510;-62
2023/05/23 10:56:23;;;;;;;21.88;17.50;;;;;;;23.73;67.04;93892.41;5053932;28;20513;-60
2023/05/23 10:58:54;;;;;;;20.48;15.82;;;;;;;24.18;63.25;93889.03;5051435;28;20509;-58
2023/05/23 11:01:22;;;;;;;22.08;17.70;;;;;;;23.60;67.87;93886.47;5046143;28;20474;-58
2023/05/23 11:03:51;;;;;;;23.37;17.60;;;;;;;23.45;70.83;93881.06;5045657;28;20477;-58
2023/05/23 11:06:34;;;;;;;22.58;16.65;;;;;;;23.50;70.61;93888.75;5047703;28;20032;-60
2023/05/23 11:09:19;;;;;;;22.33;17.00;;;;;;;23.04;70.93;93895.31;5050581;28;20037;-61
2023/05/23 11:11:52;;;;;;;21.80;17.00;;;;;;;23.01;73.32;93890.69;5048856;28;20825;-60
2023/05/23 11:14:32;;;;;;;25.67;20.80;;;;;;;21.38;78.04;93886.91;5050778;28;20040;-58
2023/05/23 11:17:11;;;;;;;23.97;18.67;;;;;;;21.30;83.31;93889.34;5051251;28;23007;-61
2023/05/23 11:19:38;;;;;;;22.48;17.80;;;;;;;22.88;75.57;93895.94;5043792;28;20637;-60